Погода Мекнесна неделю

Мекнес, Марокко

20 - 26 июля
  • 20июля
    Сегодня
    +18°
    +37°
    Ясно и безоблачно
    ВремяПогодаТемператураВлажностьДавлениеВетер, м/сВероятность осадков
    01:00Практически безоблачно+28°C46 %717 мм2.0 м/с2 %
    04:00Ясно и безоблачно+25°C49 %715 мм1.9 м/с2 %
    07:00Ясно и безоблачно+24°C50 %715 мм1.9 м/с2 %
    10:00Ясно и безоблачно+30°C41 %717 мм3.1 м/с2 %
    13:00Ясно и безоблачно+34°C24 %716 мм3.7 м/с2 %
    16:00Ясно и безоблачно+36°C22 %715 мм5.3 м/с2 %
    19:00Ясно и безоблачно+32°C31 %715 мм6.1 м/с2 %
    22:00Ясно и безоблачно+25°C50 %716 мм2.6 м/с2 %
  • 21июля
    Воскресенье
    +19°
    +35°
    Ясно и безоблачно
    ВремяПогодаТемператураВлажностьДавлениеВетер, м/сВероятность осадков
    01:00Ясно и безоблачно+22°C66 %716 мм2.2 м/с2 %
    04:00Ясно и безоблачно+20°C83 %715 мм2.0 м/с2 %
    07:00Ясно и безоблачно+18°C88 %715 мм1.2 м/с2 %
    10:00Ясно и безоблачно+26°C36 %716 мм1.6 м/с2 %
    13:00Ясно и безоблачно+32°C23 %716 мм3.1 м/с2 %
    16:00Ясно и безоблачно+34°C25 %715 мм4.3 м/с2 %
    19:00Ясно и безоблачно+32°C30 %715 мм5.2 м/с2 %
    22:00Ясно и безоблачно+24°C53 %716 мм2.5 м/с2 %
  • 22июля
    Понедельник
    +22°
    +37°
    Ясно и безоблачно
    ВремяПогодаТемператураВлажностьДавлениеВетер, м/сВероятность осадков
    01:00Ясно и безоблачно+21°C71 %715 мм1.6 м/с2 %
    04:00Ясно и безоблачно+20°C77 %714 мм2.2 м/с2 %
    07:00Ясно и безоблачно+20°C74 %714 мм2.5 м/с2 %
    10:00Ясно и безоблачно+29°C38 %716 мм2.6 м/с2 %
    13:00Ясно и безоблачно+34°C23 %715 мм3.0 м/с2 %
    16:00Ясно и безоблачно+37°C17 %715 мм4.2 м/с2 %
    19:00Практически безоблачно+36°C18 %715 мм5.0 м/с2 %
    22:00Ясно и безоблачно+27°C41 %716 мм2.4 м/с2 %
  • 23июля
    Вторник
    +24°
    +39°
    Практически безоблачно
    ВремяПогодаТемператураВлажностьДавлениеВетер, м/сВероятность осадков
    01:00Облачно с прояснениями+25°C47 %715 мм2.4 м/с2 %
    04:00Небольшая облачность+24°C43 %714 мм2.6 м/с2 %
    07:00Ясно и безоблачно+22°C45 %715 мм2.5 м/с2 %
    10:00Ясно и безоблачно+32°C24 %716 мм2.4 м/с2 %
    13:00Практически безоблачно+37°C19 %716 мм3.1 м/с2 %
    16:00Небольшая облачность+39°C16 %716 мм4.6 м/с2 %
    19:00Облачно с прояснениями+37°C21 %716 мм5.5 м/с2 %
    22:00Ясно и безоблачно+29°C42 %716 мм2.3 м/с2 %
  • 24июля
    Среда
    +22°
    +43°
    Ясно и безоблачно
    ВремяПогодаТемператураВлажностьДавлениеВетер, м/сВероятность осадков
    01:00Облачно с прояснениями+28°C44 %716 мм2.4 м/с2 %
    04:00Практически безоблачно+26°C44 %715 мм2.5 м/с2 %
    07:00Ясно и безоблачно+25°C40 %715 мм2.8 м/с2 %
    10:00Ясно и безоблачно+35°C23 %716 мм2.3 м/с2 %
    13:00Ясно и безоблачно+39°C12 %716 мм3.2 м/с2 %
    16:00Практически безоблачно+41°C8 %715 мм4.9 м/с2 %
    19:00Практически безоблачно+39°C11 %715 мм5.5 м/с2 %
    22:00Ясно и безоблачно+30°C23 %715 мм2.8 м/с2 %
Мы используем cookies
Соглашаюсь